Time;durP1;ratioP1;P1;durP2;ratioP2;P2;SDS_P1;SDS_P2;PMS_P1;PMS_P2;Temp;Humidity;BMP_temperature;BMP_pressure;BME280_temperature;BME280_humidity;BME280_pressure;Samples;Min_cycle;Max_cycle;Signal;HPM_P1;HPM_P2
2023/11/13 00:00:11;;;;;;;11.82;5.03;;;14.30;82.20;;;;;;5054028;28;20082;-74
2023/11/13 00:02:38;;;;;;;16.58;4.75;;;14.30;82.20;;;;;;5043970;28;20048;-74
2023/11/13 00:05:07;;;;;;;11.95;3.47;;;14.30;82.20;;;;;;5062940;28;20047;-73
2023/11/13 00:07:34;;;;;;;11.63;3.22;;;14.30;82.10;;;;;;5061840;28;20078;-73
2023/11/13 00:10:01;;;;;;;17.35;3.72;;;14.20;81.90;;;;;;5063175;28;20458;-74
2023/11/13 00:12:27;;;;;;;12.63;3.35;;;14.30;82.00;;;;;;5062031;28;20028;-74
2023/11/13 00:14:56;;;;;;;14.80;3.65;;;14.30;82.00;;;;;;5062635;28;20093;-74
2023/11/13 00:17:24;;;;;;;13.13;3.92;;;14.30;82.00;;;;;;5063229;28;20028;-74
2023/11/13 00:19:50;;;;;;;11.85;3.55;;;14.30;81.90;;;;;;5057307;28;20122;-73
2023/11/13 00:22:16;;;;;;;16.60;3.35;;;14.30;81.90;;;;;;5060720;28;20079;-74
2023/11/13 00:24:42;;;;;;;13.80;3.40;;;14.30;81.90;;;;;;5063210;28;20068;-74
2023/11/13 00:27:08;;;;;;;12.38;3.70;;;14.30;81.90;;;;;;5061153;28;20120;-73
2023/11/13 00:29:34;;;;;;;13.40;3.47;;;14.30;81.90;;;;;;5060821;28;20032;-74
2023/11/13 00:32:01;;;;;;;11.18;3.22;;;14.30;81.90;;;;;;5061544;28;20044;-74
2023/11/13 00:34:27;;;;;;;10.20;4.65;;;14.30;82.30;;;;;;5045396;28;20071;-74
2023/11/13 00:36:53;;;;;;;15.05;3.75;;;14.30;81.80;;;;;;5067425;28;20036;-74
2023/11/13 00:39:23;;;;;;;13.88;3.47;;;14.30;81.80;;;;;;5066190;28;20520;-73
2023/11/13 00:41:49;;;;;;;10.18;3.15;;;14.30;81.80;;;;;;5058570;28;20484;-74
2023/11/13 00:44:15;;;;;;;9.93;3.55;;;14.20;81.60;;;;;;5065220;28;20047;-73
2023/11/13 00:46:42;;;;;;;15.77;3.30;;;14.30;81.70;;;;;;5077729;28;20094;-74
2023/11/13 00:49:08;;;;;;;13.27;4.03;;;14.30;81.70;;;;;;5069041;28;20443;-73
2023/11/13 00:51:34;;;;;;;11.70;4.88;;;14.30;81.70;;;;;;5064977;28;20029;-74
2023/11/13 00:54:01;;;;;;;13.00;3.65;;;14.30;81.70;;;;;;5061638;28;20440;-74
2023/11/13 00:56:27;;;;;;;12.30;3.83;;;14.30;81.70;;;;;;5063212;28;20395;-73
2023/11/13 00:58:53;;;;;;;14.07;4.45;;;14.30;81.70;;;;;;5064612;28;20028;-73
2023/11/13 01:01:19;;;;;;;9.35;3.28;;;14.30;81.70;;;;;;5066332;28;20071;-74
2023/11/13 01:03:46;;;;;;;10.57;3.15;;;14.30;81.70;;;;;;5065177;28;20456;-73
2023/11/13 01:06:16;;;;;;;10.13;2.83;;;14.30;81.70;;;;;;5067798;28;20062;-73
2023/11/13 01:08:42;;;;;;;9.75;2.83;;;14.30;81.70;;;;;;5068320;28;20039;-74
2023/11/13 01:11:08;;;;;;;9.77;2.88;;;14.30;81.60;;;;;;5060350;28;20093;-73
2023/11/13 01:13:34;;;;;;;9.75;3.17;;;14.30;81.60;;;;;;5065049;28;20551;-74
2023/11/13 01:16:00;;;;;;;9.80;2.88;;;14.30;81.60;;;;;;5062902;28;20413;-74
2023/11/13 01:18:26;;;;;;;14.20;4.38;;;14.30;81.60;;;;;;5053734;28;20038;-74
2023/11/13 01:20:52;;;;;;;13.80;3.88;;;14.40;81.80;;;;;;5047322;28;20392;-74
2023/11/13 01:23:21;;;;;;;11.25;3.58;;;14.40;81.70;;;;;;5065462;28;20043;-74
2023/11/13 01:25:47;;;;;;;11.00;3.78;;;14.40;81.70;;;;;;5064499;28;20131;-74
2023/11/13 01:28:15;;;;;;;12.32;2.97;;;14.40;81.70;;;;;;5065437;28;20112;-74
2023/11/13 01:30:41;;;;;;;12.23;4.43;;;14.40;81.70;;;;;;5060102;28;20515;-74
2023/11/13 01:33:07;;;;;;;12.38;3.47;;;14.40;81.70;;;;;;5061527;28;20032;-74
2023/11/13 01:35:33;;;;;;;9.10;2.58;;;14.40;81.70;;;;;;5059205;28;20499;-73
2023/11/13 01:37:59;;;;;;;10.80;3.45;;;14.40;81.70;;;;;;5061299;28;20035;-73
2023/11/13 01:40:25;;;;;;;8.68;2.17;;;14.40;81.70;;;;;;5060482;28;20048;-74
2023/11/13 01:42:51;;;;;;;10.23;2.80;;;14.40;81.70;;;;;;5053429;28;20040;-74
2023/11/13 01:45:17;;;;;;;10.55;3.00;;;14.40;81.60;;;;;;5059878;28;20525;-74
2023/11/13 01:47:45;;;;;;;7.78;2.35;;;14.40;81.60;;;;;;5058746;28;20032;-74
2023/11/13 01:50:12;;;;;;;12.75;3.47;;;14.40;81.60;;;;;;5056385;28;20021;-73
2023/11/13 01:52:40;;;;;;;7.20;2.78;;;14.40;81.60;;;;;;5063470;28;20278;-74
2023/11/13 01:55:09;;;;;;;9.75;2.22;;;14.40;81.60;;;;;;5060197;28;20032;-73
2023/11/13 01:57:40;;;;;;;7.13;2.22;;;14.40;81.50;;;;;;5058737;28;20480;-73
2023/11/13 02:00:08;;;;;;;8.80;2.60;;;14.50;81.70;;;;;;5058029;28;20443;-73
2023/11/13 02:02:39;;;;;;;7.28;1.92;;;14.40;81.50;;;;;;5061117;28;20412;-74
2023/11/13 02:05:07;;;;;;;6.85;2.58;;;14.40;81.50;;;;;;5061803;28;20566;-74
2023/11/13 02:07:34;;;;;;;7.38;2.15;;;14.40;81.50;;;;;;5060008;28;20032;-74
2023/11/13 02:10:00;;;;;;;10.38;2.78;;;14.50;81.60;;;;;;5057057;28;20395;-74
2023/11/13 02:12:27;;;;;;;9.00;2.30;;;14.40;81.50;;;;;;5059684;28;20547;-74
2023/11/13 02:14:53;;;;;;;7.40;1.75;;;14.40;81.70;;;;;;5058380;28;20063;-74
2023/11/13 02:17:20;;;;;;;5.28;2.03;;;14.40;81.40;;;;;;5059548;28;20480;-74
2023/11/13 02:19:46;;;;;;;5.07;1.75;;;14.40;81.40;;;;;;5058978;28;20040;-73
2023/11/13 02:22:12;;;;;;;5.68;1.95;;;14.40;81.40;;;;;;5059092;28;20581;-74
2023/11/13 02:24:38;;;;;;;5.78;2.05;;;14.50;81.60;;;;;;5058946;28;20127;-74
2023/11/13 02:27:07;;;;;;;7.18;1.80;;;14.50;82.10;;;;;;5058188;28;20024;-74
2023/11/13 02:29:33;;;;;;;4.00;1.50;;;14.50;81.50;;;;;;5056687;28;20032;-74
2023/11/13 02:31:59;;;;;;;5.85;1.95;;;14.50;81.50;;;;;;5041883;28;20081;-74
2023/11/13 02:34:25;;;;;;;5.63;1.63;;;14.50;81.40;;;;;;5059241;28;20111;-74
2023/11/13 02:36:52;;;;;;;6.55;2.10;;;14.50;81.40;;;;;;5059104;28;20035;-73
2023/11/13 02:39:21;;;;;;;4.95;2.13;;;14.50;81.40;;;;;;5059428;28;20127;-73
2023/11/13 02:41:48;;;;;;;4.90;1.65;;;14.50;81.40;;;;;;5056023;28;20034;-73
2023/11/13 02:44:15;;;;;;;5.40;1.92;;;14.50;81.30;;;;;;5057059;28;20385;-73
2023/11/13 02:46:42;;;;;;;6.82;2.72;;;14.50;81.30;;;;;;5057960;28;20036;-73
2023/11/13 02:49:08;;;;;;;4.60;1.70;;;14.50;81.30;;;;;;5061151;28;20024;-73
2023/11/13 02:51:34;;;;;;;5.10;1.60;;;14.50;81.30;;;;;;5093690;28;20086;-73
2023/11/13 02:54:00;;;;;;;5.07;1.70;;;14.50;81.30;;;;;;5061292;28;20123;-73
2023/11/13 02:56:26;;;;;;;6.28;1.55;;;14.50;81.30;;;;;;5059629;28;20274;-73
2023/11/13 02:58:52;;;;;;;4.72;1.77;;;14.50;81.20;;;;;;5060535;28;20067;-73
2023/11/13 03:01:19;;;;;;;4.03;1.25;;;14.50;81.30;;;;;;5059118;28;20329;-73
2023/11/13 03:03:45;;;;;;;4.65;1.23;;;14.50;81.30;;;;;;5060065;28;20124;-73
2023/11/13 03:06:12;;;;;;;4.60;1.80;;;14.50;81.20;;;;;;5060825;28;20264;-73
2023/11/13 03:08:41;;;;;;;3.22;1.10;;;14.50;81.20;;;;;;5056675;28;20028;-74
2023/11/13 03:11:08;;;;;;;4.15;1.13;;;14.50;81.20;;;;;;5055359;28;20203;-73
2023/11/13 03:13:34;;;;;;;2.92;1.42;;;14.50;81.20;;;;;;5059969;28;20029;-73
2023/11/13 03:16:01;;;;;;;4.10;1.00;;;14.50;81.10;;;;;;5057573;28;20107;-74
2023/11/13 03:18:28;;;;;;;3.40;1.30;;;14.50;81.10;;;;;;5060255;28;20115;-73
2023/11/13 03:20:54;;;;;;;4.65;1.85;;;14.50;81.10;;;;;;5059337;28;20510;-73
2023/11/13 03:23:22;;;;;;;3.60;1.17;;;14.60;81.20;;;;;;5058127;28;20127;-74
2023/11/13 03:25:48;;;;;;;1.42;0.80;;;14.50;81.00;;;;;;5059971;28;20395;-75
2023/11/13 03:28:15;;;;;;;2.90;1.58;;;14.60;81.20;;;;;;5058826;28;20028;-73
2023/11/13 03:30:41;;;;;;;4.00;1.02;;;14.60;81.20;;;;;;5057312;28;20025;-74
2023/11/13 03:33:08;;;;;;;4.07;1.10;;;14.60;81.10;;;;;;5060898;28;20028;-73
2023/11/13 03:35:37;;;;;;;1.38;0.70;;;14.60;81.10;;;;;;5058551;28;20069;-73
2023/11/13 03:38:03;;;;;;;2.80;0.82;;;14.60;81.10;;;;;;5059015;28;20047;-72
2023/11/13 03:40:33;;;;;;;2.53;0.85;;;14.70;81.20;;;;;;5058909;28;20052;-73
2023/11/13 03:43:00;;;;;;;3.78;0.88;;;14.70;81.20;;;;;;5049809;28;20064;-72
2023/11/13 03:45:27;;;;;;;2.13;0.60;;;14.70;81.20;;;;;;5059448;28;20434;-73
2023/11/13 03:47:54;;;;;;;3.00;0.75;;;14.70;81.20;;;;;;5042931;28;20407;-73
2023/11/13 03:50:20;;;;;;;0.93;0.50;;;14.70;81.20;;;;;;5038714;28;20032;-74
2023/11/13 03:52:47;;;;;;;2.10;1.23;;;14.70;81.20;;;;;;5060984;28;20598;-73
2023/11/13 03:55:15;;;;;;;2.20;0.70;;;14.70;81.20;;;;;;5060778;28;20028;-73
2023/11/13 03:57:42;;;;;;;1.38;0.57;;;14.80;81.30;;;;;;5060934;28;20109;-73
2023/11/13 04:00:09;;;;;;;0.70;0.30;;;14.70;81.10;;;;;;5059071;28;20271;-73
2023/11/13 04:02:42;;;;;;;2.15;0.95;;;14.80;81.30;;;;;;5059543;28;20336;-72
2023/11/13 04:05:12;;;;;;;1.60;0.68;;;14.80;81.40;;;;;;5056785;28;20082;-73
2023/11/13 04:07:40;;;;;;;2.05;0.50;;;14.80;81.40;;;;;;5060118;28;20109;-72
2023/11/13 04:10:13;;;;;;;1.85;0.52;;;14.80;81.30;;;;;;5041662;28;20131;-72
2023/11/13 04:12:41;;;;;;;0.77;0.52;;;14.80;81.30;;;;;;5060065;28;20039;-73
2023/11/13 04:15:11;;;;;;;1.35;0.45;;;14.90;81.50;;;;;;5059606;28;20511;-72
2023/11/13 04:17:37;;;;;;;1.05;0.40;;;14.90;81.40;;;;;;5059812;28;20071;-73
2023/11/13 04:20:12;;;;;;;2.47;0.60;;;14.90;81.40;;;;;;5042734;28;20075;-73
2023/11/13 04:22:41;;;;;;;0.98;0.40;;;14.90;81.40;;;;;;5075921;28;20095;-73
2023/11/13 04:25:08;;;;;;;2.80;0.70;;;14.90;81.40;;;;;;5059832;28;20060;-73
2023/11/13 04:27:35;;;;;;;2.25;0.60;;;15.00;82.00;;;;;;5058129;28;20036;-72
2023/11/13 04:30:01;;;;;;;2.60;0.50;;;15.00;81.50;;;;;;5057426;28;20089;-72
2023/11/13 04:32:28;;;;;;;2.13;0.43;;;15.00;81.40;;;;;;5059903;28;20064;-72
2023/11/13 04:34:54;;;;;;;1.13;0.47;;;15.10;81.60;;;;;;5060880;28;20113;-72
2023/11/13 04:37:21;;;;;;;1.05;0.47;;;15.10;81.50;;;;;;5059507;28;20283;-73
2023/11/13 04:39:47;;;;;;;1.67;0.70;;;15.10;81.50;;;;;;5060357;28;20066;-73
2023/11/13 04:42:14;;;;;;;2.25;0.57;;;15.10;81.40;;;;;;5056769;28;20024;-72
2023/11/13 04:44:40;;;;;;;1.48;0.63;;;15.10;81.40;;;;;;5058421;28;20048;-73
2023/11/13 04:47:08;;;;;;;1.38;0.70;;;15.10;81.40;;;;;;5057670;28;20027;-72
2023/11/13 04:49:35;;;;;;;1.30;0.60;;;15.20;81.50;;;;;;5061767;28;20044;-73
2023/11/13 04:52:02;;;;;;;3.33;1.10;;;15.20;81.40;;;;;;5062231;28;20040;-73
2023/11/13 04:54:27;;;;;;;2.42;0.60;;;15.20;81.40;;;;;;5062991;28;20117;-73
2023/11/13 04:56:55;;;;;;;1.55;0.70;;;15.20;81.30;;;;;;5062205;28;20028;-73
2023/11/13 04:59:25;;;;;;;2.60;0.63;;;15.30;81.50;;;;;;5060276;28;20044;-72
2023/11/13 05:01:53;;;;;;;2.55;0.60;;;15.20;81.50;;;;;;5063839;28;20063;-72
2023/11/13 05:04:21;;;;;;;1.42;0.70;;;15.20;81.30;;;;;;5063497;28;20071;-73
2023/11/13 05:06:48;;;;;;;3.63;1.00;;;15.30;81.50;;;;;;5063552;28;20127;-73
2023/11/13 05:09:14;;;;;;;2.78;0.90;;;15.30;81.50;;;;;;5059498;28;20237;-73
2023/11/13 05:11:41;;;;;;;2.05;1.40;;;15.30;82.00;;;;;;5062703;28;20391;-73
2023/11/13 05:14:07;;;;;;;4.45;1.23;;;15.30;81.40;;;;;;5062825;28;20020;-73
2023/11/13 05:16:32;;;;;;;3.03;0.82;;;15.30;81.40;;;;;;5062228;28;20032;-73
2023/11/13 05:18:58;;;;;;;2.90;0.82;;;15.30;81.30;;;;;;5060075;28;20024;-73
2023/11/13 05:21:27;;;;;;;3.05;1.10;;;15.30;81.30;;;;;;5059966;28;20086;-73
2023/11/13 05:23:54;;;;;;;2.90;0.98;;;15.40;81.40;;;;;;5064250;28;20102;-72
2023/11/13 05:26:20;;;;;;;2.65;0.70;;;15.40;81.40;;;;;;5060067;28;20051;-73
2023/11/13 05:28:46;;;;;;;2.53;0.80;;;15.40;81.40;;;;;;5061240;28;20539;-73
2023/11/13 05:31:12;;;;;;;2.00;1.33;;;15.40;81.30;;;;;;5061768;28;20043;-73
2023/11/13 05:33:38;;;;;;;4.68;1.00;;;15.50;81.50;;;;;;5061901;28;20040;-73
2023/11/13 05:36:05;;;;;;;1.40;0.60;;;15.50;81.40;;;;;;5064497;28;20386;-73
2023/11/13 05:38:31;;;;;;;1.92;0.73;;;15.50;81.40;;;;;;5059601;28;20039;-73
2023/11/13 05:40:59;;;;;;;2.42;1.00;;;15.50;81.30;;;;;;5060155;28;20040;-73
2023/11/13 05:43:25;;;;;;;5.22;1.98;;;15.50;81.30;;;;;;5054670;28;20067;-73
2023/11/13 05:45:51;;;;;;;2.38;0.60;;;15.50;81.20;;;;;;5063098;28;20534;-73
2023/11/13 05:48:17;;;;;;;3.58;1.10;;;15.60;81.40;;;;;;5057506;28;20388;-73
2023/11/13 05:50:44;;;;;;;2.08;0.70;;;15.60;81.40;;;;;;5055587;28;20570;-75
2023/11/13 05:53:10;;;;;;;1.90;1.10;;;15.60;81.30;;;;;;5061188;28;20491;-73
2023/11/13 05:55:38;;;;;;;1.73;0.70;;;15.50;81.10;;;;;;5064695;28;20034;-73
2023/11/13 05:58:04;;;;;;;2.35;0.70;;;15.60;81.30;;;;;;5060793;28;20376;-73
2023/11/13 06:00:31;;;;;;;2.95;1.00;;;15.60;81.30;;;;;;5063263;28;20036;-72
2023/11/13 06:02:57;;;;;;;1.90;0.85;;;15.60;81.20;;;;;;5060819;28;20025;-73
2023/11/13 06:05:23;;;;;;;2.25;0.77;;;15.60;81.20;;;;;;5071186;28;20043;-73
2023/11/13 06:07:53;;;;;;;1.83;0.70;;;15.60;81.10;;;;;;5064633;28;20028;-73
2023/11/13 06:10:19;;;;;;;1.15;0.50;;;15.60;81.10;;;;;;5060514;28;20504;-73
2023/11/13 06:12:45;;;;;;;3.35;0.80;;;15.60;81.10;;;;;;5059517;28;20058;-73
2023/11/13 06:15:13;;;;;;;1.42;0.70;;;15.60;81.10;;;;;;5063891;28;20043;-73
2023/11/13 06:17:41;;;;;;;2.08;0.75;;;15.70;81.20;;;;;;5043250;28;20036;-73
2023/11/13 06:20:14;;;;;;;1.40;0.70;;;15.60;81.10;;;;;;5062662;28;20552;-74
2023/11/13 06:22:44;;;;;;;2.35;0.80;;;15.70;81.20;;;;;;5063273;28;20075;-74
2023/11/13 06:25:11;;;;;;;1.50;0.70;;;15.70;81.20;;;;;;5065612;28;20033;-74
2023/11/13 06:27:38;;;;;;;1.25;0.52;;;15.70;81.20;;;;;;5064749;28;20028;-73
2023/11/13 06:30:05;;;;;;;2.47;0.70;;;15.70;81.10;;;;;;5061836;28;20032;-73
2023/11/13 06:32:31;;;;;;;0.98;0.57;;;15.70;81.10;;;;;;5060593;28;20466;-73
2023/11/13 06:34:57;;;;;;;2.17;0.70;;;15.70;81.10;;;;;;5051339;28;20036;-72
2023/11/13 06:37:23;;;;;;;2.60;1.15;;;15.70;81.10;;;;;;5064351;28;20372;-73
2023/11/13 06:39:49;;;;;;;1.23;0.70;;;15.70;81.10;;;;;;5053683;28;20083;-73
2023/11/13 06:42:16;;;;;;;2.40;0.60;;;15.80;81.20;;;;;;5050969;28;20042;-74
2023/11/13 06:44:41;;;;;;;1.45;0.60;;;15.80;81.30;;;;;;5060822;28;20490;-73
2023/11/13 06:47:08;;;;;;;1.40;0.60;;;15.80;81.20;;;;;;5055422;28;20029;-74
2023/11/13 06:49:38;;;;;;;2.35;0.80;;;15.80;81.20;;;;;;5059641;28;20455;-75
2023/11/13 06:52:08;;;;;;;1.65;0.70;;;15.80;81.30;;;;;;5059764;28;20024;-74
2023/11/13 06:54:35;;;;;;;0.95;0.43;;;15.80;81.40;;;;;;5060618;28;20039;-75
2023/11/13 06:57:01;;;;;;;4.10;1.00;;;15.80;81.40;;;;;;5056876;28;20036;-75
2023/11/13 06:59:27;;;;;;;6.25;2.45;;;15.80;81.40;;;;;;5058692;28;20433;-75
2023/11/13 07:01:53;;;;;;;8.77;2.30;;;15.80;81.50;;;;;;5038446;28;20032;-77
2023/11/13 07:04:20;;;;;;;8.10;1.75;;;15.80;81.60;;;;;;5059375;28;20040;-76
2023/11/13 07:06:46;;;;;;;10.73;2.42;;;15.80;81.70;;;;;;5057205;28;20029;-76
2023/11/13 07:09:13;;;;;;;8.77;1.80;;;15.80;81.80;;;;;;5054287;28;20040;-75
2023/11/13 07:11:42;;;;;;;8.90;1.83;;;15.80;82.00;;;;;;5053229;28;20495;-76
2023/11/13 07:14:12;;;;;;;8.82;1.90;;;15.80;82.30;;;;;;5059476;28;20040;-75
2023/11/13 07:16:42;;;;;;;4.90;1.38;;;15.80;82.40;;;;;;5057835;28;20052;-75
2023/11/13 07:19:09;;;;;;;6.93;1.10;;;15.80;82.50;;;;;;5053620;28;20503;-75
2023/11/13 07:21:35;;;;;;;5.07;1.35;;;15.90;82.80;;;;;;5054685;28;20463;-75
2023/11/13 07:24:05;;;;;;;2.25;0.88;;;15.90;82.90;;;;;;5058884;28;20040;-76
2023/11/13 07:26:32;;;;;;;3.15;0.88;;;15.90;83.00;;;;;;5054392;28;20044;-75
2023/11/13 07:28:58;;;;;;;4.28;1.02;;;15.90;83.10;;;;;;5051034;28;20558;-75
2023/11/13 07:31:24;;;;;;;3.83;0.88;;;15.90;83.10;;;;;;5052558;28;20325;-75
2023/11/13 07:33:50;;;;;;;4.07;1.75;;;15.90;83.20;;;;;;5062636;28;20032;-75
2023/11/13 07:36:17;;;;;;;3.95;1.05;;;16.00;83.40;;;;;;5055710;28;20032;-75
2023/11/13 07:38:44;;;;;;;2.65;0.93;;;16.00;83.50;;;;;;5052861;28;20036;-76
2023/11/13 07:41:13;;;;;;;5.43;1.38;;;16.00;83.50;;;;;;5055398;28;20064;-77
2023/11/13 07:43:42;;;;;;;5.85;1.55;;;16.00;83.50;;;;;;5052931;28;20063;-76
2023/11/13 07:46:09;;;;;;;5.47;1.85;;;16.10;83.70;;;;;;5053484;28;20039;-76
2023/11/13 07:48:37;;;;;;;6.13;2.45;;;16.10;83.70;;;;;;5053223;28;20048;-76
2023/11/13 07:51:07;;;;;;;7.68;1.65;;;16.10;83.70;;;;;;5057309;28;20024;-76
2023/11/13 07:53:36;;;;;;;8.60;1.85;;;16.10;83.70;;;;;;5055687;28;20039;-77
2023/11/13 07:56:06;;;;;;;4.97;1.77;;;16.10;83.70;;;;;;5046082;28;20020;-77
2023/11/13 07:58:32;;;;;;;7.72;1.70;;;16.20;83.90;;;;;;5057315;28;20496;-77
2023/11/13 08:00:58;;;;;;;11.48;2.08;;;16.10;83.70;;;;;;5053126;28;20024;-77
2023/11/13 08:03:25;;;;;;;8.27;2.63;;;16.20;83.90;;;;;;5058863;28;20037;-77
2023/11/13 08:05:54;;;;;;;7.68;2.40;;;16.10;83.60;;;;;;5055693;28;20037;-76
2023/11/13 08:08:20;;;;;;;6.93;2.25;;;16.20;83.80;;;;;;5056275;28;20502;-76
2023/11/13 08:10:47;;;;;;;7.80;1.95;;;16.20;83.70;;;;;;5054046;28;20029;-77
2023/11/13 08:13:15;;;;;;;9.80;2.03;;;16.20;83.70;;;;;;5056765;28;20044;-76
2023/11/13 08:15:45;;;;;;;9.48;2.35;;;16.20;83.60;;;;;;5056198;28;20036;-77
2023/11/13 08:18:15;;;;;;;10.50;2.80;;;16.20;83.60;;;;;;5053379;28;20044;-76
2023/11/13 08:20:42;;;;;;;8.23;2.28;;;16.20;83.50;;;;;;5054680;28;20024;-77
2023/11/13 08:23:13;;;;;;;5.82;1.75;;;16.30;83.60;;;;;;5060331;28;20173;-77
2023/11/13 08:25:44;;;;;;;12.23;2.40;;;16.30;83.60;;;;;;5061671;28;20506;-77
2023/11/13 08:28:14;;;;;;;8.93;1.92;;;16.30;83.50;;;;;;5057364;28;20494;-78
2023/11/13 08:30:46;;;;;;;10.65;2.92;;;16.30;83.50;;;;;;5058185;28;20099;-77
2023/11/13 08:33:13;;;;;;;10.13;2.90;;;16.40;83.50;;;;;;5059929;28;20025;-77
2023/11/13 08:35:39;;;;;;;11.18;2.72;;;16.50;83.30;;;;;;5063115;28;20392;-78
2023/11/13 08:38:10;;;;;;;12.35;3.53;;;16.50;83.10;;;;;;5055230;28;20031;-78
2023/11/13 08:40:37;;;;;;;8.82;2.85;;;16.50;83.00;;;;;;5057379;28;20078;-78
2023/11/13 08:43:10;;;;;;;17.67;4.38;;;16.50;82.80;;;;;;5056256;28;20044;-78
2023/11/13 08:45:40;;;;;;;13.85;2.63;;;16.60;82.90;;;;;;5056354;28;20089;-77
2023/11/13 08:48:10;;;;;;;10.88;3.22;;;16.60;82.70;;;;;;5059195;28;20031;-78
2023/11/13 08:50:37;;;;;;;8.60;3.17;;;16.60;82.50;;;;;;5059956;28;20122;-77
2023/11/13 08:53:05;;;;;;;8.98;2.53;;;16.60;82.40;;;;;;5062183;28;20052;-77
2023/11/13 08:55:31;;;;;;;17.95;4.43;;;16.60;82.40;;;;;;5058863;28;20043;-78
2023/11/13 08:58:00;;;;;;;12.73;3.63;;;16.60;82.30;;;;;;5061851;28;20405;-78
2023/11/13 09:00:40;;;;;;;12.10;3.90;;;16.60;82.20;;;;;;5057793;28;20035;-78
2023/11/13 09:03:11;;;;;;;12.40;3.08;;;16.60;82.00;;;;;;5058484;28;20044;-79
2023/11/13 09:05:38;;;;;;;16.05;3.25;;;16.70;82.00;;;;;;5060016;28;20243;-78
2023/11/13 09:08:04;;;;;;;12.32;3.78;;;16.80;82.00;;;;;;5062559;28;20028;-78
2023/11/13 09:10:31;;;;;;;13.73;2.65;;;16.80;81.80;;;;;;5059076;28;20049;-78
2023/11/13 09:13:03;;;;;;;13.63;4.25;;;16.90;81.70;;;;;;5059214;28;20036;-78
2023/11/13 09:15:30;;;;;;;12.25;2.47;;;16.90;81.40;;;;;;5064088;28;20036;-78
2023/11/13 09:18:05;;;;;;;11.27;3.13;;;16.90;81.10;;;;;;5059413;28;20036;-77
2023/11/13 09:20:35;;;;;;;15.90;4.15;;;17.00;81.10;;;;;;5061971;28;20067;-78
2023/11/13 09:23:04;;;;;;;17.80;3.25;;;17.00;80.90;;;;;;5058300;28;20063;-78
2023/11/13 09:25:31;;;;;;;13.02;3.20;;;17.00;81.30;;;;;;5041828;28;20041;-78
2023/11/13 09:27:57;;;;;;;12.52;3.10;;;17.10;80.80;;;;;;5057814;28;20032;-78
2023/11/13 09:30:25;;;;;;;12.45;3.08;;;17.00;80.50;;;;;;5057980;28;20806;-77
2023/11/13 09:32:52;;;;;;;11.82;3.67;;;17.00;80.30;;;;;;5037884;28;20031;-78
2023/11/13 09:35:24;;;;;;;12.63;3.05;;;17.10;80.40;;;;;;5060089;28;20396;-77
2023/11/13 09:37:52;;;;;;;10.55;3.10;;;17.10;80.20;;;;;;5058464;28;20493;-77
2023/11/13 09:40:31;;;;;;;15.27;3.30;;;17.10;79.90;;;;;;5088028;28;20095;-77
2023/11/13 09:43:06;;;;;;;14.45;2.47;;;17.10;79.70;;;;;;5050379;28;20052;-78
2023/11/13 09:45:36;;;;;;;10.93;2.83;;;17.20;79.60;;;;;;5055767;28;20432;-77
2023/11/13 09:48:07;;;;;;;15.48;3.20;;;17.10;79.40;;;;;;5062583;28;20445;-77
2023/11/13 09:50:34;;;;;;;14.43;3.17;;;17.10;79.20;;;;;;5056276;28;20114;-77
2023/11/13 09:53:03;;;;;;;15.43;3.90;;;17.10;79.10;;;;;;5058232;28;20039;-77
2023/11/13 09:55:30;;;;;;;10.32;2.83;;;17.10;79.00;;;;;;5061708;28;20033;-78
2023/11/13 09:57:59;;;;;;;11.35;2.63;;;17.10;78.90;;;;;;5064336;28;20185;-78
2023/11/13 10:00:29;;;;;;;21.83;4.55;;;17.10;78.80;;;;;;5057669;28;20043;-77
2023/11/13 10:02:55;;;;;;;9.90;2.67;;;17.00;78.50;;;;;;5057143;28;20032;-77
2023/11/13 10:05:29;;;;;;;10.75;2.28;;;17.10;78.60;;;;;;5062733;28;20445;-78
2023/11/13 10:07:57;;;;;;;13.90;3.10;;;17.00;78.40;;;;;;5059462;28;20098;-78
2023/11/13 10:10:28;;;;;;;12.68;2.83;;;17.10;78.50;;;;;;5057932;28;20435;-77
2023/11/13 10:13:04;;;;;;;9.50;2.47;;;17.10;78.30;;;;;;5057501;28;20341;-78
2023/11/13 10:15:36;;;;;;;13.40;2.97;;;17.10;78.10;;;;;;5031706;28;20052;-78
2023/11/13 10:18:07;;;;;;;8.40;2.92;;;17.10;78.10;;;;;;5036391;28;20727;-77
2023/11/13 10:20:41;;;;;;;11.85;3.50;;;17.20;78.10;;;;;;5057836;28;20035;-77
2023/11/13 10:23:08;;;;;;;11.25;3.35;;;17.20;77.90;;;;;;5053097;28;20047;-78
2023/11/13 10:25:50;;;;;;;9.98;2.47;;;17.30;78.00;;;;;;5058487;28;20052;-78
2023/11/13 10:28:17;;;;;;;12.90;2.97;;;17.40;77.90;;;;;;5058052;28;20033;-78
2023/11/13 10:31:00;;;;;;;11.70;2.97;;;17.50;77.90;;;;;;5052821;28;20419;-77
2023/11/13 10:33:30;;;;;;;11.63;2.58;;;17.50;77.50;;;;;;5056621;28;20533;-78
2023/11/13 10:36:04;;;;;;;11.75;3.47;;;17.60;77.40;;;;;;5054659;28;20114;-77
2023/11/13 10:38:43;;;;;;;12.10;3.10;;;17.70;77.30;;;;;;5053830;28;20552;-78
2023/11/13 10:41:27;;;;;;;11.00;2.35;;;17.70;76.90;;;;;;5053459;28;20169;-79
2023/11/13 10:43:53;;;;;;;10.80;2.67;;;17.80;76.90;;;;;;5050808;28;20048;-77
2023/11/13 10:46:28;;;;;;;11.90;2.83;;;17.70;76.60;;;;;;5055202;28;20029;-78
2023/11/13 10:48:56;;;;;;;7.80;2.20;;;17.70;76.40;;;;;;5059145;28;20484;-77
2023/11/13 10:51:25;;;;;;;8.55;2.05;;;17.70;76.40;;;;;;5055480;28;20034;-78
2023/11/13 10:53:54;;;;;;;7.72;2.28;;;17.70;76.30;;;;;;5058973;28;20438;-78
2023/11/13 10:56:21;;;;;;;14.65;3.03;;;17.70;76.20;;;;;;5058942;28;20040;-78
2023/11/13 10:58:48;;;;;;;7.78;2.85;;;17.70;76.10;;;;;;5057179;28;20178;-78
2023/11/13 11:01:23;;;;;;;10.27;3.15;;;17.70;76.10;;;;;;5057691;28;20170;-78
2023/11/13 11:03:55;;;;;;;9.60;2.13;;;17.70;76.10;;;;;;5058950;28;20044;-78
2023/11/13 11:06:29;;;;;;;11.88;2.55;;;17.70;75.90;;;;;;5056641;28;20709;-78
2023/11/13 11:08:58;;;;;;;14.93;3.97;;;17.70;75.80;;;;;;5072382;28;20033;-78
2023/11/13 11:11:25;;;;;;;11.00;2.78;;;17.80;75.90;;;;;;5054894;28;20051;-79
2023/11/13 11:13:56;;;;;;;11.45;2.45;;;17.80;75.60;;;;;;5053262;28;20713;-75
2023/11/13 11:16:31;;;;;;;11.40;2.72;;;17.80;75.40;;;;;;5052356;28;20805;-77
2023/11/13 11:19:05;;;;;;;14.45;4.28;;;17.90;75.40;;;;;;5052630;28;20432;-77
2023/11/13 11:21:45;;;;;;;11.52;2.70;;;17.90;75.30;;;;;;5054305;28;20042;-77
2023/11/13 11:24:25;;;;;;;11.98;3.20;;;17.90;75.10;;;;;;5054903;28;20043;-78
2023/11/13 11:26:58;;;;;;;11.02;3.20;;;18.00;75.10;;;;;;5056061;28;20033;-78
2023/11/13 11:29:38;;;;;;;8.20;2.45;;;17.90;74.80;;;;;;5040954;28;20036;-78
2023/11/13 11:32:24;;;;;;;13.25;2.67;;;18.00;74.90;;;;;;5081617;27;20546;-77
2023/11/13 11:35:01;;;;;;;13.30;3.47;;;17.90;74.60;;;;;;5059622;28;20493;-77
2023/11/13 11:37:27;;;;;;;12.38;4.40;;;18.00;74.90;;;;;;5062258;28;20039;-77
2023/11/13 11:39:57;;;;;;;9.43;3.00;;;18.10;74.90;;;;;;5062505;28;20197;-76
2023/11/13 11:42:28;;;;;;;10.88;3.70;;;18.30;75.00;;;;;;5082414;28;20072;-75
2023/11/13 11:45:03;;;;;;;9.88;2.13;;;18.30;74.60;;;;;;5063116;28;20077;-76
2023/11/13 11:47:29;;;;;;;8.25;2.22;;;18.40;74.40;;;;;;5049879;28;20041;-75
2023/11/13 11:49:59;;;;;;;10.75;2.88;;;18.50;74.30;;;;;;5058497;28;20036;-76
2023/11/13 11:52:54;;;;;;;9.90;2.78;;;18.50;74.00;;;;;;5059469;28;20075;-76
2023/11/13 11:55:22;;;;;;;14.43;3.03;;;18.50;73.70;;;;;;5058650;28;20063;-77
2023/11/13 11:57:50;;;;;;;8.45;2.65;;;18.50;73.80;;;;;;5055896;28;20037;-76
2023/11/13 12:00:20;;;;;;;10.07;3.03;;;18.40;73.60;;;;;;5060252;28;20036;-76
2023/11/13 12:02:48;;;;;;;13.02;3.78;;;18.40;73.60;;;;;;5062264;28;20060;-76
2023/11/13 12:05:14;;;;;;;13.18;3.15;;;18.40;73.60;;;;;;5065297;28;20038;-76
2023/11/13 12:07:41;;;;;;;9.80;2.78;;;18.30;73.30;;;;;;5062800;28;20066;-76
2023/11/13 12:10:11;;;;;;;11.82;3.38;;;18.30;73.30;;;;;;5060607;28;20032;-76
2023/11/13 12:12:41;;;;;;;9.77;2.45;;;18.30;73.40;;;;;;5064417;28;20041;-75
2023/11/13 12:15:08;;;;;;;10.60;2.75;;;18.20;73.30;;;;;;5060519;28;20138;-77
2023/11/13 12:17:39;;;;;;;12.70;3.10;;;18.20;73.30;;;;;;5063099;28;20359;-76
2023/11/13 12:20:09;;;;;;;13.60;3.42;;;18.10;73.10;;;;;;5059688;28;20025;-77
2023/11/13 12:22:40;;;;;;;14.77;3.33;;;18.10;73.10;;;;;;5057996;28;20043;-76
2023/11/13 12:25:08;;;;;;;18.80;4.00;;;18.10;73.20;;;;;;5062941;28;20142;-77
2023/11/13 12:27:36;;;;;;;18.95;4.72;;;18.00;73.20;;;;;;5062953;28;20384;-76
2023/11/13 12:30:07;;;;;;;13.65;4.63;;;18.00;73.50;;;;;;5062108;28;20027;-77
2023/11/13 12:32:34;;;;;;;17.05;4.47;;;17.90;73.40;;;;;;5060821;28;20502;-77
2023/11/13 12:35:04;;;;;;;13.18;4.07;;;17.90;73.50;;;;;;5044302;28;20502;-76
2023/11/13 12:37:30;;;;;;;16.05;4.50;;;17.90;73.70;;;;;;5059694;28;20043;-77
2023/11/13 12:40:01;;;;;;;15.80;4.57;;;17.90;73.70;;;;;;5055566;28;20045;-77
2023/11/13 12:42:30;;;;;;;15.23;5.03;;;17.90;73.60;;;;;;5037982;28;20082;-77
2023/11/13 12:44:57;;;;;;;9.70;2.95;;;17.90;73.70;;;;;;5057581;28;20602;-77
2023/11/13 12:47:24;;;;;;;12.77;3.58;;;17.90;73.70;;;;;;5050791;28;20089;-78